sensor_id;sensor_type;location;lat;lon;timestamp;P1;durP1;ratioP1;P2;durP2;ratioP2
40256;SDS011;25977;45.462;9.210;2022-09-12T10:54:52;7.47;;;2.47;;
40256;SDS011;25977;45.462;9.210;2022-09-12T11:05:58;1.25;;;1.00;;
40256;SDS011;25977;45.462;9.210;2022-09-12T11:17:05;1.92;;;1.70;;
40256;SDS011;25977;45.462;9.210;2022-09-12T11:28:33;3.67;;;2.45;;
40256;SDS011;25977;45.462;9.210;2022-09-12T11:30:35;1.95;;;1.85;;
40256;SDS011;25977;45.462;9.210;2022-09-12T11:35:59;3.33;;;1.90;;
40256;SDS011;25977;45.462;9.210;2022-09-12T11:38:35;4.57;;;1.40;;
40256;SDS011;25977;45.462;9.210;2022-09-12T11:41:04;4.60;;;1.58;;
40256;SDS011;25977;45.462;9.210;2022-09-12T11:43:39;2.13;;;1.38;;
40256;SDS011;25977;45.462;9.210;2022-09-12T11:46:20;1.85;;;1.33;;
40256;SDS011;25977;45.462;9.210;2022-09-12T11:48:56;4.32;;;1.40;;
40256;SDS011;25977;45.462;9.210;2022-09-12T11:51:30;4.18;;;1.92;;
40256;SDS011;25977;45.462;9.210;2022-09-12T11:56:46;1.20;;;1.10;;
40256;SDS011;25977;45.462;9.210;2022-09-12T12:02:25;3.60;;;1.05;;
40256;SDS011;25977;45.462;9.210;2022-09-12T12:05:04;1.63;;;1.50;;
40256;SDS011;25977;45.462;9.210;2022-09-12T12:07:52;2.85;;;1.40;;
40256;SDS011;25977;45.462;9.210;2022-09-12T12:13:16;2.40;;;2.15;;
40256;SDS011;25977;45.462;9.210;2022-09-12T12:15:47;1.98;;;1.80;;
40256;SDS011;25977;45.462;9.210;2022-09-12T12:18:18;1.88;;;1.73;;
40256;SDS011;25977;45.462;9.210;2022-09-12T12:20:52;6.25;;;2.08;;
40256;SDS011;25977;45.462;9.210;2022-09-12T12:23:30;3.58;;;1.50;;
40256;SDS011;25977;45.462;9.210;2022-09-12T12:26:01;5.18;;;2.50;;
40256;SDS011;25977;45.462;9.210;2022-09-12T12:31:06;2.10;;;1.35;;
40256;SDS011;25977;45.462;9.210;2022-09-12T12:36:03;1.92;;;1.75;;
40256;SDS011;25977;45.462;9.210;2022-09-12T12:43:44;2.13;;;1.92;;
40256;SDS011;25977;45.462;9.210;2022-09-12T12:46:11;2.95;;;1.30;;
40256;SDS011;25977;45.462;9.210;2022-09-12T12:51:25;1.30;;;1.30;;
40256;SDS011;25977;45.462;9.210;2022-09-12T12:53:58;2.05;;;1.40;;
40256;SDS011;25977;45.462;9.210;2022-09-12T12:59:18;1.60;;;1.50;;
40256;SDS011;25977;45.462;9.210;2022-09-12T13:01:51;2.65;;;1.48;;
40256;SDS011;25977;45.462;9.210;2022-09-12T13:04:24;4.90;;;2.38;;
40256;SDS011;25977;45.462;9.210;2022-09-12T13:06:57;2.38;;;1.65;;
40256;SDS011;25977;45.462;9.210;2022-09-12T13:19:39;2.60;;;1.00;;
40256;SDS011;25977;45.462;9.210;2022-09-12T13:22:06;1.67;;;1.00;;
40256;SDS011;25977;45.462;9.210;2022-09-12T13:24:41;2.67;;;1.60;;
40256;SDS011;25977;45.462;9.210;2022-09-12T13:27:34;2.42;;;1.67;;
40256;SDS011;25977;45.462;9.210;2022-09-12T13:30:07;0.95;;;0.95;;
40256;SDS011;25977;45.462;9.210;2022-09-12T13:32:37;2.88;;;0.98;;
40256;SDS011;25977;45.462;9.210;2022-09-12T13:35:10;1.48;;;1.00;;
40256;SDS011;25977;45.462;9.210;2022-09-12T13:37:53;2.08;;;0.95;;
40256;SDS011;25977;45.462;9.210;2022-09-12T13:40:31;1.27;;;1.17;;
40256;SDS011;25977;45.462;9.210;2022-09-12T13:43:20;1.42;;;1.13;;
40256;SDS011;25977;45.462;9.210;2022-09-12T13:46:00;0.80;;;0.80;;
40256;SDS011;25977;45.462;9.210;2022-09-12T13:48:26;2.50;;;1.20;;
40256;SDS011;25977;45.462;9.210;2022-09-12T13:53:21;3.53;;;1.45;;
40256;SDS011;25977;45.462;9.210;2022-09-12T13:55:55;1.80;;;1.25;;
40256;SDS011;25977;45.462;9.210;2022-09-12T13:58:26;2.17;;;1.00;;
40256;SDS011;25977;45.462;9.210;2022-09-12T14:03:39;3.80;;;1.67;;
40256;SDS011;25977;45.462;9.210;2022-09-12T14:06:42;8.02;;;1.10;;
40256;SDS011;25977;45.462;9.210;2022-09-12T14:09:16;3.65;;;1.67;;
40256;SDS011;25977;45.462;9.210;2022-09-12T14:11:47;2.42;;;1.27;;
40256;SDS011;25977;45.462;9.210;2022-09-12T14:14:27;4.70;;;1.50;;
40256;SDS011;25977;45.462;9.210;2022-09-12T14:16:55;2.20;;;1.55;;
40256;SDS011;25977;45.462;9.210;2022-09-12T14:19:22;1.88;;;1.02;;
40256;SDS011;25977;45.462;9.210;2022-09-12T14:21:50;2.38;;;1.13;;
40256;SDS011;25977;45.462;9.210;2022-09-12T14:24:17;2.00;;;1.08;;
40256;SDS011;25977;45.462;9.210;2022-09-12T14:26:49;1.23;;;1.13;;
40256;SDS011;25977;45.462;9.210;2022-09-12T14:29:20;1.10;;;1.08;;
40256;SDS011;25977;45.462;9.210;2022-09-12T14:31:59;1.42;;;1.02;;
40256;SDS011;25977;45.462;9.210;2022-09-12T14:34:27;2.28;;;1.20;;
40256;SDS011;25977;45.462;9.210;2022-09-12T14:36:53;1.45;;;1.30;;
40256;SDS011;25977;45.462;9.210;2022-09-12T14:39:41;2.67;;;1.30;;
40256;SDS011;25977;45.462;9.210;2022-09-12T14:44:36;2.15;;;1.42;;
40256;SDS011;25977;45.462;9.210;2022-09-12T14:47:10;3.55;;;0.90;;
40256;SDS011;25977;45.462;9.210;2022-09-12T14:49:44;1.23;;;1.13;;
40256;SDS011;25977;45.462;9.210;2022-09-12T14:52:23;5.05;;;0.85;;
40256;SDS011;25977;45.462;9.210;2022-09-12T14:55:17;2.40;;;0.93;;
40256;SDS011;25977;45.462;9.210;2022-09-12T15:00:56;3.00;;;1.17;;
40256;SDS011;25977;45.462;9.210;2022-09-12T15:03:25;2.78;;;1.40;;
40256;SDS011;25977;45.462;9.210;2022-09-12T15:05:59;3.70;;;1.00;;
40256;SDS011;25977;45.462;9.210;2022-09-12T15:08:27;3.10;;;1.13;;
40256;SDS011;25977;45.462;9.210;2022-09-12T15:10:54;0.90;;;0.73;;
40256;SDS011;25977;45.462;9.210;2022-09-12T15:13:22;1.67;;;0.60;;
40256;SDS011;25977;45.462;9.210;2022-09-12T15:15:55;2.28;;;1.63;;
40256;SDS011;25977;45.462;9.210;2022-09-12T15:18:24;0.75;;;0.75;;
40256;SDS011;25977;45.462;9.210;2022-09-12T15:20:55;1.00;;;0.80;;
40256;SDS011;25977;45.462;9.210;2022-09-12T15:23:43;2.83;;;0.65;;
40256;SDS011;25977;45.462;9.210;2022-09-12T15:26:15;0.80;;;0.80;;
40256;SDS011;25977;45.462;9.210;2022-09-12T15:33:51;1.90;;;0.82;;
40256;SDS011;25977;45.462;9.210;2022-09-12T15:36:18;4.00;;;1.33;;
40256;SDS011;25977;45.462;9.210;2022-09-12T15:38:46;2.70;;;0.90;;
40256;SDS011;25977;45.462;9.210;2022-09-12T15:41:20;2.65;;;1.25;;
40256;SDS011;25977;45.462;9.210;2022-09-12T15:44:06;1.00;;;0.80;;
40256;SDS011;25977;45.462;9.210;2022-09-12T15:46:36;0.70;;;0.70;;
40256;SDS011;25977;45.462;9.210;2022-09-12T15:49:02;1.27;;;0.90;;
40256;SDS011;25977;45.462;9.210;2022-09-12T15:51:28;2.65;;;1.23;;
40256;SDS011;25977;45.462;9.210;2022-09-12T15:53:53;2.30;;;1.30;;
40256;SDS011;25977;45.462;9.210;2022-09-12T15:56:21;1.13;;;1.02;;
40256;SDS011;25977;45.462;9.210;2022-09-12T15:58:47;3.35;;;1.42;;
40256;SDS011;25977;45.462;9.210;2022-09-12T16:01:14;4.72;;;1.30;;
40256;SDS011;25977;45.462;9.210;2022-09-12T16:03:41;6.53;;;1.20;;
40256;SDS011;25977;45.462;9.210;2022-09-12T16:06:07;2.13;;;1.00;;
40256;SDS011;25977;45.462;9.210;2022-09-12T16:08:35;1.00;;;1.00;;
40256;SDS011;25977;45.462;9.210;2022-09-12T16:11:02;2.83;;;1.25;;
40256;SDS011;25977;45.462;9.210;2022-09-12T16:13:37;2.70;;;1.00;;
40256;SDS011;25977;45.462;9.210;2022-09-12T16:16:03;3.45;;;1.27;;
40256;SDS011;25977;45.462;9.210;2022-09-12T16:18:29;2.40;;;0.90;;
40256;SDS011;25977;45.462;9.210;2022-09-12T16:20:55;5.25;;;1.52;;
40256;SDS011;25977;45.462;9.210;2022-09-12T16:23:22;1.42;;;0.90;;
40256;SDS011;25977;45.462;9.210;2022-09-12T16:25:58;2.28;;;1.40;;
40256;SDS011;25977;45.462;9.210;2022-09-12T16:28:25;2.78;;;1.20;;
40256;SDS011;25977;45.462;9.210;2022-09-12T16:30:55;2.05;;;0.98;;
40256;SDS011;25977;45.462;9.210;2022-09-12T16:33:21;2.35;;;1.20;;
40256;SDS011;25977;45.462;9.210;2022-09-12T16:35:47;3.10;;;1.13;;
40256;SDS011;25977;45.462;9.210;2022-09-12T16:38:13;1.67;;;1.10;;
40256;SDS011;25977;45.462;9.210;2022-09-12T16:40:38;1.17;;;1.08;;
40256;SDS011;25977;45.462;9.210;2022-09-12T16:43:04;1.63;;;0.90;;
40256;SDS011;25977;45.462;9.210;2022-09-12T16:45:30;1.38;;;1.10;;
40256;SDS011;25977;45.462;9.210;2022-09-12T16:47:55;3.03;;;1.00;;
40256;SDS011;25977;45.462;9.210;2022-09-12T16:50:21;1.45;;;1.35;;
40256;SDS011;25977;45.462;9.210;2022-09-12T16:52:47;2.28;;;0.80;;
40256;SDS011;25977;45.462;9.210;2022-09-12T16:55:13;6.50;;;1.40;;
40256;SDS011;25977;45.462;9.210;2022-09-12T16:57:39;5.60;;;1.38;;
40256;SDS011;25977;45.462;9.210;2022-09-12T17:00:05;4.28;;;0.95;;
40256;SDS011;25977;45.462;9.210;2022-09-12T17:02:31;5.93;;;1.20;;
40256;SDS011;25977;45.462;9.210;2022-09-12T17:04:57;5.72;;;1.70;;
40256;SDS011;25977;45.462;9.210;2022-09-12T17:07:22;1.17;;;1.00;;
40256;SDS011;25977;45.462;9.210;2022-09-12T17:09:48;2.05;;;0.95;;
40256;SDS011;25977;45.462;9.210;2022-09-12T17:12:14;1.23;;;1.10;;
40256;SDS011;25977;45.462;9.210;2022-09-12T17:14:40;2.22;;;0.88;;
40256;SDS011;25977;45.462;9.210;2022-09-12T17:19:36;5.73;;;1.00;;
40256;SDS011;25977;45.462;9.210;2022-09-12T17:22:02;1.45;;;1.08;;
40256;SDS011;25977;45.462;9.210;2022-09-12T17:24:28;2.88;;;1.27;;
40256;SDS011;25977;45.462;9.210;2022-09-12T17:26:53;2.85;;;1.20;;
40256;SDS011;25977;45.462;9.210;2022-09-12T17:29:21;3.75;;;1.20;;
40256;SDS011;25977;45.462;9.210;2022-09-12T17:31:47;2.72;;;1.58;;
40256;SDS011;25977;45.462;9.210;2022-09-12T17:34:13;1.90;;;1.40;;
40256;SDS011;25977;45.462;9.210;2022-09-12T17:36:40;3.40;;;1.45;;
40256;SDS011;25977;45.462;9.210;2022-09-12T17:39:08;3.17;;;1.48;;
40256;SDS011;25977;45.462;9.210;2022-09-12T17:44:38;3.28;;;1.27;;
40256;SDS011;25977;45.462;9.210;2022-09-12T17:47:04;1.73;;;0.95;;
40256;SDS011;25977;45.462;9.210;2022-09-12T17:49:30;4.53;;;1.42;;
40256;SDS011;25977;45.462;9.210;2022-09-12T17:51:57;3.47;;;1.30;;
40256;SDS011;25977;45.462;9.210;2022-09-12T17:54:23;3.03;;;1.15;;
40256;SDS011;25977;45.462;9.210;2022-09-12T17:56:49;2.72;;;1.33;;
40256;SDS011;25977;45.462;9.210;2022-09-12T17:59:19;6.47;;;1.50;;
40256;SDS011;25977;45.462;9.210;2022-09-12T18:01:47;4.30;;;1.38;;
40256;SDS011;25977;45.462;9.210;2022-09-12T18:04:31;3.78;;;0.93;;
40256;SDS011;25977;45.462;9.210;2022-09-12T18:06:57;1.20;;;1.17;;
40256;SDS011;25977;45.462;9.210;2022-09-12T18:09:24;2.78;;;1.35;;
40256;SDS011;25977;45.462;9.210;2022-09-12T18:11:51;2.22;;;1.20;;
40256;SDS011;25977;45.462;9.210;2022-09-12T18:14:17;1.73;;;1.40;;
40256;SDS011;25977;45.462;9.210;2022-09-12T18:16:44;2.78;;;1.40;;
40256;SDS011;25977;45.462;9.210;2022-09-12T18:19:11;3.05;;;1.63;;
40256;SDS011;25977;45.462;9.210;2022-09-12T18:21:37;3.00;;;1.45;;
40256;SDS011;25977;45.462;9.210;2022-09-12T18:24:03;8.50;;;2.15;;
40256;SDS011;25977;45.462;9.210;2022-09-12T18:26:29;2.10;;;1.65;;
40256;SDS011;25977;45.462;9.210;2022-09-12T18:28:56;4.32;;;1.70;;
40256;SDS011;25977;45.462;9.210;2022-09-12T18:31:24;3.38;;;1.95;;
40256;SDS011;25977;45.462;9.210;2022-09-12T18:33:52;2.15;;;2.00;;
40256;SDS011;25977;45.462;9.210;2022-09-12T18:36:19;1.67;;;1.58;;
40256;SDS011;25977;45.462;9.210;2022-09-12T18:38:45;2.00;;;1.73;;
40256;SDS011;25977;45.462;9.210;2022-09-12T18:41:13;5.95;;;1.77;;
40256;SDS011;25977;45.462;9.210;2022-09-12T18:43:41;2.55;;;1.60;;
40256;SDS011;25977;45.462;9.210;2022-09-12T18:46:11;3.28;;;2.20;;
40256;SDS011;25977;45.462;9.210;2022-09-12T18:48:41;6.38;;;2.67;;
40256;SDS011;25977;45.462;9.210;2022-09-12T18:51:09;5.68;;;3.97;;
40256;SDS011;25977;45.462;9.210;2022-09-12T18:53:39;7.55;;;3.38;;
40256;SDS011;25977;45.462;9.210;2022-09-12T18:56:06;7.40;;;4.13;;
40256;SDS011;25977;45.462;9.210;2022-09-12T18:58:37;3.63;;;3.05;;
40256;SDS011;25977;45.462;9.210;2022-09-12T19:01:08;6.43;;;2.53;;
40256;SDS011;25977;45.462;9.210;2022-09-12T19:03:39;3.15;;;2.75;;
40256;SDS011;25977;45.462;9.210;2022-09-12T19:06:06;5.35;;;2.15;;
40256;SDS011;25977;45.462;9.210;2022-09-12T19:08:36;2.97;;;2.30;;
40256;SDS011;25977;45.462;9.210;2022-09-12T19:11:02;3.47;;;2.85;;
40256;SDS011;25977;45.462;9.210;2022-09-12T19:13:29;4.60;;;2.53;;
40256;SDS011;25977;45.462;9.210;2022-09-12T19:15:55;4.20;;;2.67;;
40256;SDS011;25977;45.462;9.210;2022-09-12T19:18:21;6.40;;;2.97;;
40256;SDS011;25977;45.462;9.210;2022-09-12T19:20:50;6.68;;;3.53;;
40256;SDS011;25977;45.462;9.210;2022-09-12T19:23:16;3.50;;;3.05;;
40256;SDS011;25977;45.462;9.210;2022-09-12T19:25:42;8.30;;;2.75;;
40256;SDS011;25977;45.462;9.210;2022-09-12T19:28:10;3.90;;;3.20;;
40256;SDS011;25977;45.462;9.210;2022-09-12T19:30:36;6.57;;;3.50;;
40256;SDS011;25977;45.462;9.210;2022-09-12T19:33:02;6.88;;;4.10;;
40256;SDS011;25977;45.462;9.210;2022-09-12T19:35:27;7.75;;;4.05;;
40256;SDS011;25977;45.462;9.210;2022-09-12T19:37:53;7.90;;;4.03;;
40256;SDS011;25977;45.462;9.210;2022-09-12T19:40:19;5.93;;;4.10;;
40256;SDS011;25977;45.462;9.210;2022-09-12T19:42:44;4.05;;;3.40;;
40256;SDS011;25977;45.462;9.210;2022-09-12T19:45:10;3.22;;;3.03;;
40256;SDS011;25977;45.462;9.210;2022-09-12T19:47:36;4.13;;;3.25;;
40256;SDS011;25977;45.462;9.210;2022-09-12T19:50:02;3.35;;;2.90;;
40256;SDS011;25977;45.462;9.210;2022-09-12T19:52:28;6.50;;;3.88;;
40256;SDS011;25977;45.462;9.210;2022-09-12T19:54:53;5.40;;;4.90;;
40256;SDS011;25977;45.462;9.210;2022-09-12T19:57:19;5.57;;;3.97;;
40256;SDS011;25977;45.462;9.210;2022-09-12T19:59:45;6.65;;;4.18;;
40256;SDS011;25977;45.462;9.210;2022-09-12T20:02:12;5.13;;;3.50;;
40256;SDS011;25977;45.462;9.210;2022-09-12T20:04:37;9.55;;;3.58;;
40256;SDS011;25977;45.462;9.210;2022-09-12T20:07:03;5.70;;;3.08;;
40256;SDS011;25977;45.462;9.210;2022-09-12T20:09:29;3.90;;;3.03;;
40256;SDS011;25977;45.462;9.210;2022-09-12T20:11:54;3.35;;;2.83;;
40256;SDS011;25977;45.462;9.210;2022-09-12T20:14:20;4.75;;;2.95;;
40256;SDS011;25977;45.462;9.210;2022-09-12T20:16:46;5.03;;;2.92;;
40256;SDS011;25977;45.462;9.210;2022-09-12T20:19:12;5.80;;;3.10;;
40256;SDS011;25977;45.462;9.210;2022-09-12T20:21:38;5.35;;;3.22;;
40256;SDS011;25977;45.462;9.210;2022-09-12T20:24:08;5.97;;;3.60;;
40256;SDS011;25977;45.462;9.210;2022-09-12T20:26:35;5.03;;;4.05;;
40256;SDS011;25977;45.462;9.210;2022-09-12T20:29:02;5.65;;;4.05;;
40256;SDS011;25977;45.462;9.210;2022-09-12T20:31:28;6.90;;;3.33;;
40256;SDS011;25977;45.462;9.210;2022-09-12T20:33:55;6.10;;;3.08;;
40256;SDS011;25977;45.462;9.210;2022-09-12T20:36:20;4.43;;;3.40;;
40256;SDS011;25977;45.462;9.210;2022-09-12T20:38:47;3.38;;;2.95;;
40256;SDS011;25977;45.462;9.210;2022-09-12T20:41:14;7.93;;;2.80;;
40256;SDS011;25977;45.462;9.210;2022-09-12T20:43:41;5.13;;;2.55;;
40256;SDS011;25977;45.462;9.210;2022-09-12T20:46:07;4.63;;;2.67;;
40256;SDS011;25977;45.462;9.210;2022-09-12T20:48:34;6.72;;;2.80;;
40256;SDS011;25977;45.462;9.210;2022-09-12T20:51:00;5.13;;;2.75;;
40256;SDS011;25977;45.462;9.210;2022-09-12T20:53:26;6.35;;;2.75;;
40256;SDS011;25977;45.462;9.210;2022-09-12T20:55:52;3.75;;;2.67;;
40256;SDS011;25977;45.462;9.210;2022-09-12T20:58:19;2.63;;;2.13;;
40256;SDS011;25977;45.462;9.210;2022-09-12T21:00:46;5.88;;;3.17;;
40256;SDS011;25977;45.462;9.210;2022-09-12T21:03:12;4.40;;;2.88;;
40256;SDS011;25977;45.462;9.210;2022-09-12T21:05:38;6.70;;;2.80;;
40256;SDS011;25977;45.462;9.210;2022-09-12T21:08:06;4.20;;;2.60;;
40256;SDS011;25977;45.462;9.210;2022-09-12T21:10:32;6.43;;;2.50;;
40256;SDS011;25977;45.462;9.210;2022-09-12T21:12:58;4.65;;;2.88;;
40256;SDS011;25977;45.462;9.210;2022-09-12T21:15:24;6.07;;;3.22;;
40256;SDS011;25977;45.462;9.210;2022-09-12T21:17:50;4.57;;;3.10;;
40256;SDS011;25977;45.462;9.210;2022-09-12T21:20:17;6.78;;;2.90;;
40256;SDS011;25977;45.462;9.210;2022-09-12T21:22:42;6.75;;;3.20;;
40256;SDS011;25977;45.462;9.210;2022-09-12T21:25:08;3.95;;;3.53;;
40256;SDS011;25977;45.462;9.210;2022-09-12T21:27:35;6.22;;;3.38;;
40256;SDS011;25977;45.462;9.210;2022-09-12T21:30:01;6.20;;;3.40;;
40256;SDS011;25977;45.462;9.210;2022-09-12T21:32:28;8.30;;;4.07;;
40256;SDS011;25977;45.462;9.210;2022-09-12T21:35:00;9.43;;;4.60;;
40256;SDS011;25977;45.462;9.210;2022-09-12T21:37:26;6.93;;;4.15;;
40256;SDS011;25977;45.462;9.210;2022-09-12T21:39:52;8.43;;;4.18;;
40256;SDS011;25977;45.462;9.210;2022-09-12T21:42:18;10.25;;;3.20;;
40256;SDS011;25977;45.462;9.210;2022-09-12T21:44:44;5.55;;;2.40;;
40256;SDS011;25977;45.462;9.210;2022-09-12T21:47:10;10.82;;;3.42;;
40256;SDS011;25977;45.462;9.210;2022-09-12T21:49:36;6.20;;;2.85;;
40256;SDS011;25977;45.462;9.210;2022-09-12T21:52:01;7.63;;;3.70;;
40256;SDS011;25977;45.462;9.210;2022-09-12T21:54:28;6.28;;;3.13;;
40256;SDS011;25977;45.462;9.210;2022-09-12T21:56:54;14.10;;;3.35;;
40256;SDS011;25977;45.462;9.210;2022-09-12T21:59:19;11.50;;;3.60;;
40256;SDS011;25977;45.462;9.210;2022-09-12T22:01:45;7.07;;;3.72;;
40256;SDS011;25977;45.462;9.210;2022-09-12T22:04:11;3.10;;;2.90;;
40256;SDS011;25977;45.462;9.210;2022-09-12T22:06:37;3.05;;;2.85;;
40256;SDS011;25977;45.462;9.210;2022-09-12T22:09:03;10.45;;;4.10;;
40256;SDS011;25977;45.462;9.210;2022-09-12T22:11:29;6.03;;;3.60;;
40256;SDS011;25977;45.462;9.210;2022-09-12T22:13:55;9.98;;;4.05;;
40256;SDS011;25977;45.462;9.210;2022-09-12T22:16:21;13.85;;;4.32;;
40256;SDS011;25977;45.462;9.210;2022-09-12T22:18:46;4.10;;;3.58;;
40256;SDS011;25977;45.462;9.210;2022-09-12T22:21:15;10.18;;;3.55;;
40256;SDS011;25977;45.462;9.210;2022-09-12T22:23:42;5.72;;;3.70;;
40256;SDS011;25977;45.462;9.210;2022-09-12T22:26:27;9.40;;;3.75;;
40256;SDS011;25977;45.462;9.210;2022-09-12T22:28:54;5.25;;;3.78;;
40256;SDS011;25977;45.462;9.210;2022-09-12T22:31:20;6.38;;;4.10;;
40256;SDS011;25977;45.462;9.210;2022-09-12T22:33:46;6.63;;;4.22;;
40256;SDS011;25977;45.462;9.210;2022-09-12T22:36:12;5.32;;;4.38;;
40256;SDS011;25977;45.462;9.210;2022-09-12T22:38:38;9.52;;;4.93;;
40256;SDS011;25977;45.462;9.210;2022-09-12T22:41:05;8.82;;;4.05;;
40256;SDS011;25977;45.462;9.210;2022-09-12T22:43:32;7.38;;;4.97;;
40256;SDS011;25977;45.462;9.210;2022-09-12T22:45:58;10.02;;;4.95;;
40256;SDS011;25977;45.462;9.210;2022-09-12T22:48:24;5.38;;;3.80;;
40256;SDS011;25977;45.462;9.210;2022-09-12T22:50:51;10.90;;;5.18;;
40256;SDS011;25977;45.462;9.210;2022-09-12T22:53:17;7.07;;;4.78;;
40256;SDS011;25977;45.462;9.210;2022-09-12T22:55:43;8.40;;;4.97;;
40256;SDS011;25977;45.462;9.210;2022-09-12T22:58:09;6.60;;;4.90;;
40256;SDS011;25977;45.462;9.210;2022-09-12T23:00:35;7.55;;;4.75;;
40256;SDS011;25977;45.462;9.210;2022-09-12T23:03:01;6.40;;;5.53;;
40256;SDS011;25977;45.462;9.210;2022-09-12T23:05:27;5.70;;;5.13;;
40256;SDS011;25977;45.462;9.210;2022-09-12T23:07:53;6.10;;;5.18;;
40256;SDS011;25977;45.462;9.210;2022-09-12T23:10:19;6.25;;;4.50;;
40256;SDS011;25977;45.462;9.210;2022-09-12T23:12:46;5.15;;;4.63;;
40256;SDS011;25977;45.462;9.210;2022-09-12T23:15:12;7.90;;;5.13;;
40256;SDS011;25977;45.462;9.210;2022-09-12T23:17:37;7.70;;;5.13;;
40256;SDS011;25977;45.462;9.210;2022-09-12T23:20:03;7.97;;;5.63;;
40256;SDS011;25977;45.462;9.210;2022-09-12T23:22:29;7.80;;;6.13;;
40256;SDS011;25977;45.462;9.210;2022-09-12T23:24:55;7.63;;;5.97;;
40256;SDS011;25977;45.462;9.210;2022-09-12T23:27:21;9.00;;;5.85;;
40256;SDS011;25977;45.462;9.210;2022-09-12T23:29:47;9.90;;;6.00;;
40256;SDS011;25977;45.462;9.210;2022-09-12T23:32:16;6.53;;;4.97;;
40256;SDS011;25977;45.462;9.210;2022-09-12T23:34:43;6.45;;;5.85;;
40256;SDS011;25977;45.462;9.210;2022-09-12T23:37:10;13.43;;;5.55;;
40256;SDS011;25977;45.462;9.210;2022-09-12T23:39:36;7.78;;;5.70;;
40256;SDS011;25977;45.462;9.210;2022-09-12T23:42:02;10.70;;;5.72;;
40256;SDS011;25977;45.462;9.210;2022-09-12T23:44:28;8.18;;;6.18;;
40256;SDS011;25977;45.462;9.210;2022-09-12T23:46:53;6.00;;;5.50;;
40256;SDS011;25977;45.462;9.210;2022-09-12T23:49:19;8.30;;;5.60;;
40256;SDS011;25977;45.462;9.210;2022-09-12T23:51:45;10.73;;;5.75;;
40256;SDS011;25977;45.462;9.210;2022-09-12T23:54:12;10.88;;;5.60;;
40256;SDS011;25977;45.462;9.210;2022-09-12T23:56:37;5.63;;;5.07;;
40256;SDS011;25977;45.462;9.210;2022-09-12T23:59:03;5.38;;;4.72;;
